createdAt,value
2018-12-06T00:02:09.006Z,86.30
2018-12-06T00:04:37.732Z,86.30
2018-12-06T00:07:06.523Z,86.30
2018-12-06T00:09:35.383Z,86.00
2018-12-06T00:12:04.189Z,86.40
2018-12-06T00:14:33.249Z,86.30
2018-12-06T00:17:01.983Z,86.10
2018-12-06T00:19:30.607Z,86.10
2018-12-06T00:21:59.804Z,86.00
2018-12-06T00:24:29.007Z,86.00
2018-12-06T00:26:57.878Z,86.70
2018-12-06T00:29:26.802Z,85.80
2018-12-06T00:31:55.717Z,85.70
2018-12-06T00:34:24.199Z,85.70
2018-12-06T00:36:53.001Z,85.50
2018-12-06T00:39:22.043Z,85.80
2018-12-06T00:41:50.892Z,85.60
2018-12-06T00:44:19.652Z,85.70
2018-12-06T00:46:50.029Z,85.40
2018-12-06T00:49:18.684Z,85.40
2018-12-06T00:51:47.616Z,85.50
2018-12-06T00:54:16.527Z,85.50
2018-12-06T00:56:45.487Z,85.60
2018-12-06T00:59:14.210Z,85.50
2018-12-06T01:01:42.901Z,85.60
2018-12-06T01:04:11.685Z,85.80
2018-12-06T01:06:40.338Z,86.00
2018-12-06T01:09:09.022Z,86.20
2018-12-06T01:11:40.308Z,86.10
2018-12-06T01:14:09.095Z,86.10
2018-12-06T01:16:37.915Z,86.20
2018-12-06T01:19:07.177Z,86.10
2018-12-06T01:21:36.224Z,86.10
2018-12-06T01:24:05.417Z,86.00
2018-12-06T01:26:34.216Z,85.90
2018-12-06T01:29:02.890Z,86.00
2018-12-06T01:31:31.667Z,86.00
2018-12-06T01:34:00.881Z,85.90
2018-12-06T01:36:29.820Z,86.40
2018-12-06T01:38:58.503Z,86.60
2018-12-06T01:41:27.042Z,86.50
2018-12-06T01:43:55.887Z,86.50
2018-12-06T01:46:24.622Z,86.60
2018-12-06T01:48:53.290Z,86.50
2018-12-06T01:51:22.156Z,86.60
2018-12-06T01:53:51.253Z,87.00
2018-12-06T01:56:19.974Z,86.70
2018-12-06T01:58:48.567Z,86.70
2018-12-06T02:01:17.635Z,86.70
2018-12-06T02:03:46.210Z,86.80
2018-12-06T02:06:15.036Z,86.80
2018-12-06T02:08:43.585Z,86.80
2018-12-06T02:11:12.325Z,86.90
2018-12-06T02:13:40.995Z,87.00
2018-12-06T02:16:09.840Z,87.20
2018-12-06T02:18:38.664Z,87.20
2018-12-06T02:21:07.279Z,87.40
2018-12-06T02:23:36.010Z,87.40
2018-12-06T02:26:04.590Z,87.30
2018-12-06T02:28:34.430Z,87.30
2018-12-06T02:31:03.466Z,87.30
2018-12-06T02:33:32.383Z,87.10
2018-12-06T02:36:01.223Z,87.30
2018-12-06T02:38:30.063Z,87.40
2018-12-06T02:41:00.119Z,87.30
2018-12-06T02:43:30.028Z,87.40
2018-12-06T02:45:58.982Z,87.40
2018-12-06T02:48:27.883Z,87.10
2018-12-06T02:50:56.597Z,87.20
2018-12-06T02:53:25.743Z,87.00
2018-12-06T02:55:54.894Z,87.40
2018-12-06T02:58:23.699Z,86.80
2018-12-06T03:00:52.810Z,86.80
2018-12-06T03:03:21.770Z,87.00
2018-12-06T03:05:50.694Z,87.00
2018-12-06T03:08:19.448Z,86.90
2018-12-06T03:10:48.328Z,86.90
2018-12-06T03:13:18.065Z,86.90
2018-12-06T03:15:47.041Z,86.80
2018-12-06T03:18:16.820Z,87.00
2018-12-06T03:20:45.406Z,87.20
2018-12-06T03:23:14.975Z,87.20
2018-12-06T03:25:43.629Z,87.20
2018-12-06T03:28:12.482Z,87.30
2018-12-06T03:30:41.363Z,87.30
2018-12-06T03:33:10.169Z,87.40
2018-12-06T03:35:38.716Z,87.40
2018-12-06T03:38:08.018Z,87.50
2018-12-06T03:40:36.734Z,87.30
2018-12-06T03:43:05.435Z,87.30
2018-12-06T03:45:34.303Z,87.40
2018-12-06T03:48:03.284Z,87.50
2018-12-06T03:50:32.134Z,87.60
2018-12-06T03:53:00.786Z,87.60
2018-12-06T03:55:29.414Z,87.30
2018-12-06T03:57:58.519Z,87.20
2018-12-06T04:00:27.569Z,87.00
2018-12-06T04:02:56.567Z,87.30
2018-12-06T04:05:25.188Z,87.40
2018-12-06T04:07:54.092Z,87.50
2018-12-06T04:10:23.097Z,87.10
2018-12-06T04:12:51.880Z,86.90
2018-12-06T04:15:20.853Z,87.00
2018-12-06T04:17:49.523Z,87.20
2018-12-06T04:20:18.315Z,87.20
2018-12-06T04:22:47.301Z,87.30
2018-12-06T04:25:16.039Z,87.20
2018-12-06T04:27:45.057Z,87.00
2018-12-06T04:30:14.394Z,86.90
2018-12-06T04:32:43.721Z,86.90
2018-12-06T04:35:12.475Z,86.70
2018-12-06T04:37:41.565Z,86.80
2018-12-06T04:40:10.141Z,86.80
2018-12-06T04:42:38.750Z,86.80
2018-12-06T04:45:11.201Z,86.90
2018-12-06T04:47:40.637Z,86.60
2018-12-06T04:50:09.563Z,86.90
2018-12-06T04:52:39.213Z,86.90
2018-12-06T04:55:08.058Z,87.00
2018-12-06T04:57:36.580Z,87.00
2018-12-06T05:00:05.866Z,86.90
2018-12-06T05:02:34.646Z,86.90
2018-12-06T05:05:03.322Z,86.90
2018-12-06T05:07:32.397Z,86.70
2018-12-06T05:10:01.499Z,87.40
2018-12-06T05:12:30.514Z,86.40
2018-12-06T05:14:59.686Z,86.00
2018-12-06T05:17:28.408Z,86.40
2018-12-06T05:19:57.713Z,86.20
2018-12-06T05:22:26.767Z,86.20
2018-12-06T05:24:55.639Z,86.80
2018-12-06T05:27:24.561Z,85.80
2018-12-06T05:29:53.616Z,85.70
2018-12-06T05:32:29.128Z,85.70
2018-12-06T05:34:57.719Z,85.40
2018-12-06T05:37:26.446Z,85.50
2018-12-06T05:39:55.299Z,85.70
2018-12-06T05:42:23.940Z,85.60
2018-12-06T05:44:52.638Z,85.50
2018-12-06T05:47:21.631Z,85.40
2018-12-06T05:49:50.464Z,85.30
2018-12-06T05:52:22.345Z,85.40
2018-12-06T05:54:51.407Z,85.60
2018-12-06T05:57:20.196Z,85.80
2018-12-06T05:59:48.877Z,85.70
2018-12-06T06:02:17.718Z,86.40
2018-12-06T06:04:47.384Z,85.80
2018-12-06T06:07:15.931Z,85.50
2018-12-06T06:09:44.550Z,85.30
2018-12-06T06:12:13.271Z,85.30
2018-12-06T06:14:43.737Z,85.40
2018-12-06T06:17:12.612Z,85.70
2018-12-06T06:19:41.826Z,85.70
2018-12-06T06:22:10.779Z,85.30
2018-12-06T06:24:43.931Z,85.10
2018-12-06T06:27:18.039Z,85.10
2018-12-06T06:29:47.116Z,85.10
2018-12-06T06:32:16.180Z,84.90
2018-12-06T06:34:48.468Z,85.00
2018-12-06T06:37:17.544Z,84.90
2018-12-06T06:39:46.238Z,84.80
2018-12-06T06:42:15.019Z,84.70
2018-12-06T06:44:43.634Z,84.70
2018-12-06T06:47:12.690Z,84.50
2018-12-06T06:49:42.048Z,84.60
2018-12-06T06:52:11.071Z,85.20
2018-12-06T06:54:40.031Z,85.40
2018-12-06T06:57:09.150Z,85.00
2018-12-06T06:59:39.435Z,83.90
2018-12-06T07:02:08.503Z,83.70
2018-12-06T07:04:41.898Z,83.00
2018-12-06T07:09:57.834Z,82.40
2018-12-06T07:12:26.680Z,81.90
2018-12-06T07:14:55.478Z,81.40
2018-12-06T07:17:24.608Z,81.30
2018-12-06T07:19:54.265Z,81.10
2018-12-06T07:22:23.293Z,81.00
2018-12-06T07:24:52.053Z,80.60
2018-12-06T07:27:24.188Z,80.90
2018-12-06T07:29:52.972Z,81.00
2018-12-06T07:32:21.632Z,80.90
2018-12-06T07:34:50.734Z,80.70
2018-12-06T07:37:19.406Z,80.40
2018-12-06T07:40:14.806Z,80.20
2018-12-06T07:42:44.128Z,80.00
2018-12-06T07:45:15.413Z,79.80
2018-12-06T07:47:44.883Z,79.80
2018-12-06T07:50:14.416Z,79.60
2018-12-06T07:52:44.153Z,79.20
2018-12-06T07:55:27.785Z,79.40
2018-12-06T07:57:56.808Z,79.30
2018-12-06T08:00:26.917Z,79.00
2018-12-06T08:02:55.458Z,78.80
2018-12-06T08:05:45.682Z,78.80
2018-12-06T08:08:21.894Z,78.80
2018-12-06T08:10:51.011Z,78.20
2018-12-06T08:13:21.857Z,78.50
2018-12-06T08:18:30.696Z,78.00
2018-12-06T08:21:00.107Z,78.10
2018-12-06T08:23:31.437Z,77.50
2018-12-06T08:26:00.677Z,77.70
2018-12-06T08:28:30.317Z,77.40
2018-12-06T08:31:00.438Z,77.10
2018-12-06T08:33:29.012Z,76.60
2018-12-06T08:36:03.432Z,76.50
2018-12-06T08:38:34.002Z,75.90
2018-12-06T08:41:03.657Z,76.30
2018-12-06T08:43:33.385Z,76.10
2018-12-06T08:46:20.797Z,76.10
2018-12-06T08:48:49.366Z,76.60
2018-12-06T08:51:18.100Z,75.60
2018-12-06T08:53:48.114Z,75.20
2018-12-06T08:56:16.597Z,74.70
2018-12-06T08:58:45.162Z,74.30
2018-12-06T09:01:14.439Z,74.40
2018-12-06T09:03:48.969Z,74.30
2018-12-06T09:06:17.682Z,74.30
2018-12-06T09:08:46.461Z,74.80
2018-12-06T09:11:15.125Z,73.90
2018-12-06T09:13:45.029Z,74.00
2018-12-06T09:16:16.328Z,73.90
2018-12-06T09:18:45.359Z,74.10
2018-12-06T09:21:16.063Z,74.00
2018-12-06T09:23:46.992Z,73.70
2018-12-06T09:26:16.529Z,73.20
2018-12-06T09:28:46.106Z,73.00
2018-12-06T09:31:16.446Z,73.50
2018-12-06T09:33:56.282Z,73.60
2018-12-06T09:36:25.954Z,73.20
2018-12-06T09:38:55.025Z,72.90
2018-12-06T09:41:23.933Z,72.30
2018-12-06T09:43:52.905Z,72.50
2018-12-06T09:46:21.497Z,72.90
2018-12-06T09:48:51.197Z,73.30
2018-12-06T09:51:20.178Z,73.10
2018-12-06T09:53:49.433Z,73.00
2018-12-06T09:56:18.718Z,73.80
2018-12-06T09:58:47.724Z,74.00
2018-12-06T10:01:16.494Z,74.40
2018-12-06T10:03:45.686Z,74.10
2018-12-06T10:06:14.913Z,73.80
2018-12-06T10:08:45.707Z,73.10
2018-12-06T10:11:14.726Z,73.10
2018-12-06T10:13:43.610Z,73.40
2018-12-06T10:16:12.608Z,72.80
2018-12-06T10:19:08.564Z,72.80
2018-12-06T10:21:39.791Z,73.40
2018-12-06T10:24:08.985Z,72.30
2018-12-06T10:26:38.386Z,72.30
2018-12-06T10:29:07.565Z,71.80
2018-12-06T10:31:57.742Z,71.40
2018-12-06T10:34:27.744Z,71.20
2018-12-06T10:36:56.542Z,70.20
2018-12-06T10:39:25.322Z,70.90
2018-12-06T10:41:55.293Z,70.80
2018-12-06T10:44:30.277Z,70.80
2018-12-06T10:46:59.266Z,71.00
2018-12-06T10:49:28.207Z,70.90
2018-12-06T10:51:56.897Z,70.70
2018-12-06T10:54:28.613Z,69.80
2018-12-06T10:56:57.397Z,70.60
2018-12-06T10:59:26.076Z,71.30
2018-12-06T11:02:00.334Z,70.20
2018-12-06T11:04:36.919Z,71.30
2018-12-06T11:07:07.406Z,70.40
2018-12-06T11:09:36.315Z,70.00
2018-12-06T11:12:05.358Z,70.30
2018-12-06T11:14:34.857Z,70.40
2018-12-06T11:17:03.685Z,70.70
2018-12-06T11:19:32.897Z,70.00
2018-12-06T11:22:02.250Z,69.40
2018-12-06T11:24:30.974Z,70.30
2018-12-06T11:26:59.674Z,70.60
2018-12-06T11:29:28.278Z,70.20
2018-12-06T11:31:58.745Z,69.50
2018-12-06T11:34:29.113Z,70.00
2018-12-06T11:36:58.896Z,69.80
2018-12-06T11:39:27.819Z,69.90
2018-12-06T11:41:56.726Z,69.00
2018-12-06T11:44:25.780Z,68.80
2018-12-06T11:46:54.554Z,67.90
2018-12-06T11:49:23.255Z,68.00
2018-12-06T11:51:52.423Z,67.10
2018-12-06T11:54:21.187Z,66.40
2018-12-06T11:56:51.922Z,67.00
2018-12-06T11:59:20.579Z,66.70
2018-12-06T12:01:49.276Z,65.50
2018-12-06T12:04:18.488Z,66.40
2018-12-06T12:06:47.755Z,66.00
2018-12-06T12:09:17.367Z,66.60
2018-12-06T12:11:45.930Z,66.50
2018-12-06T12:14:14.493Z,66.50
2018-12-06T12:16:43.178Z,67.10
2018-12-06T12:19:15.351Z,67.20
2018-12-06T12:21:44.098Z,66.50
2018-12-06T12:24:13.131Z,67.20
2018-12-06T12:26:41.750Z,67.10
2018-12-06T12:29:12.721Z,66.90
2018-12-06T12:31:41.359Z,67.30
2018-12-06T12:34:10.127Z,66.50
2018-12-06T12:36:39.250Z,67.50
2018-12-06T12:39:09.577Z,67.20
2018-12-06T12:41:38.376Z,66.40
2018-12-06T12:44:07.401Z,66.00
2018-12-06T12:46:36.074Z,66.60
2018-12-06T12:49:04.989Z,67.30
2018-12-06T12:51:33.684Z,67.20
2018-12-06T12:54:02.825Z,66.00
2018-12-06T12:56:31.738Z,65.50
2018-12-06T12:59:00.468Z,65.20
2018-12-06T13:01:29.070Z,65.10
2018-12-06T13:03:57.683Z,65.10
2018-12-06T13:06:27.386Z,64.90
2018-12-06T13:08:58.647Z,64.90
2018-12-06T13:11:29.048Z,64.50
2018-12-06T13:14:02.352Z,64.60
2018-12-06T13:16:32.278Z,64.70
2018-12-06T13:19:08.788Z,64.80
2018-12-06T13:21:43.106Z,65.60
2018-12-06T13:24:16.562Z,65.70
2018-12-06T13:26:53.330Z,65.80
2018-12-06T13:29:25.474Z,65.60
2018-12-06T13:31:56.518Z,66.20
2018-12-06T13:34:34.618Z,66.80
2018-12-06T13:37:13.911Z,66.20
2018-12-06T13:39:57.163Z,65.50
2018-12-06T13:42:30.935Z,65.80
2018-12-06T13:45:06.652Z,66.80
2018-12-06T13:47:37.291Z,66.70
2018-12-06T14:14:40.562Z,69.70
2018-12-06T14:17:51.961Z,69.70
2018-12-06T14:20:27.389Z,70.10
2018-12-06T14:22:56.919Z,69.20
2018-12-06T14:25:28.176Z,70.40
2018-12-06T14:27:57.517Z,70.50
2018-12-06T14:30:26.420Z,71.30
2018-12-06T14:32:56.330Z,70.10
2018-12-06T14:35:26.549Z,70.90
2018-12-06T14:37:55.620Z,70.60
2018-12-06T14:40:24.570Z,70.80
2018-12-06T14:42:55.144Z,71.00
2018-12-06T14:45:24.775Z,70.80
2018-12-06T14:47:53.972Z,70.80
2018-12-06T14:50:23.915Z,70.80
2018-12-06T14:52:55.296Z,70.90
2018-12-06T14:55:25.502Z,70.90
2018-12-06T14:58:08.579Z,70.40
2018-12-06T15:00:54.380Z,70.70
2018-12-06T15:03:24.255Z,69.80
2018-12-06T15:05:53.097Z,70.00
2018-12-06T15:08:25.667Z,69.80
2018-12-06T15:10:58.799Z,69.20
2018-12-06T15:13:28.004Z,69.20
2018-12-06T15:15:56.993Z,69.10
2018-12-06T15:18:26.047Z,68.90
2018-12-06T21:42:29.939Z,75.10
